sensor_id;sensor_type;location;lat;lon;timestamp;temperature;humidity
43987;DHT22;29650;47.378;8.300;2023-07-31T00:00:19;16.60;99.90
43987;DHT22;29650;47.378;8.300;2023-07-31T00:02:46;16.70;99.90
43987;DHT22;29650;47.378;8.300;2023-07-31T00:05:13;15.70;99.90
43987;DHT22;29650;47.378;8.300;2023-07-31T00:07:40;16.60;99.90
43987;DHT22;29650;47.378;8.300;2023-07-31T00:10:08;16.50;99.90
43987;DHT22;29650;47.378;8.300;2023-07-31T00:12:35;16.50;99.90
43987;DHT22;29650;47.378;8.300;2023-07-31T00:15:04;16.60;99.90
43987;DHT22;29650;47.378;8.300;2023-07-31T00:17:31;16.60;99.90
43987;DHT22;29650;47.378;8.300;2023-07-31T00:19:58;16.50;99.90
43987;DHT22;29650;47.378;8.300;2023-07-31T00:22:25;16.40;99.90
43987;DHT22;29650;47.378;8.300;2023-07-31T00:24:52;16.40;99.90
43987;DHT22;29650;47.378;8.300;2023-07-31T00:27:19;16.40;99.90
43987;DHT22;29650;47.378;8.300;2023-07-31T00:29:46;16.30;99.90
43987;DHT22;29650;47.378;8.300;2023-07-31T00:32:14;16.50;99.90
43987;DHT22;29650;47.378;8.300;2023-07-31T00:34:41;16.40;99.90
43987;DHT22;29650;47.378;8.300;2023-07-31T00:37:08;16.50;99.90
43987;DHT22;29650;47.378;8.300;2023-07-31T00:39:35;16.30;99.90
43987;DHT22;29650;47.378;8.300;2023-07-31T00:42:02;16.30;99.90
43987;DHT22;29650;47.378;8.300;2023-07-31T00:44:32;16.40;99.90
43987;DHT22;29650;47.378;8.300;2023-07-31T00:47:00;16.40;99.90
43987;DHT22;29650;47.378;8.300;2023-07-31T00:49:28;15.80;99.90
43987;DHT22;29650;47.378;8.300;2023-07-31T00:51:55;16.20;99.90
43987;DHT22;29650;47.378;8.300;2023-07-31T00:54:23;16.20;99.90
43987;DHT22;29650;47.378;8.300;2023-07-31T00:56:50;16.10;99.90
43987;DHT22;29650;47.378;8.300;2023-07-31T00:59:19;16.10;99.90
43987;DHT22;29650;47.378;8.300;2023-07-31T01:01:46;16.00;99.90
43987;DHT22;29650;47.378;8.300;2023-07-31T01:04:14;16.00;99.90
43987;DHT22;29650;47.378;8.300;2023-07-31T01:06:46;15.90;99.90
43987;DHT22;29650;47.378;8.300;2023-07-31T01:09:22;15.80;99.90
43987;DHT22;29650;47.378;8.300;2023-07-31T01:11:54;15.80;99.90
43987;DHT22;29650;47.378;8.300;2023-07-31T01:14:23;15.80;99.90
43987;DHT22;29650;47.378;8.300;2023-07-31T01:16:50;15.80;99.90
43987;DHT22;29650;47.378;8.300;2023-07-31T01:19:18;15.90;99.90
43987;DHT22;29650;47.378;8.300;2023-07-31T01:22:12;15.90;99.90
43987;DHT22;29650;47.378;8.300;2023-07-31T01:24:54;15.70;99.90
43987;DHT22;29650;47.378;8.300;2023-07-31T01:27:25;15.80;99.90
43987;DHT22;29650;47.378;8.300;2023-07-31T01:29:59;15.70;99.90
43987;DHT22;29650;47.378;8.300;2023-07-31T01:32:28;15.80;99.90
43987;DHT22;29650;47.378;8.300;2023-07-31T01:34:58;15.60;99.90
43987;DHT22;29650;47.378;8.300;2023-07-31T01:37:28;15.70;99.90
43987;DHT22;29650;47.378;8.300;2023-07-31T01:39:55;15.80;99.90
43987;DHT22;29650;47.378;8.300;2023-07-31T01:42:24;15.40;99.90
43987;DHT22;29650;47.378;8.300;2023-07-31T01:44:51;15.70;99.90
43987;DHT22;29650;47.378;8.300;2023-07-31T01:47:18;15.50;99.90
43987;DHT22;29650;47.378;8.300;2023-07-31T01:49:45;15.50;99.90
43987;DHT22;29650;47.378;8.300;2023-07-31T01:52:12;15.40;99.90
43987;DHT22;29650;47.378;8.300;2023-07-31T01:54:38;15.40;99.90
43987;DHT22;29650;47.378;8.300;2023-07-31T01:57:06;15.40;99.90
43987;DHT22;29650;47.378;8.300;2023-07-31T01:59:34;15.30;99.90
43987;DHT22;29650;47.378;8.300;2023-07-31T02:02:01;15.40;99.90
43987;DHT22;29650;47.378;8.300;2023-07-31T02:04:28;15.40;99.90
43987;DHT22;29650;47.378;8.300;2023-07-31T02:06:55;15.70;99.90
43987;DHT22;29650;47.378;8.300;2023-07-31T02:09:22;15.70;99.90
43987;DHT22;29650;47.378;8.300;2023-07-31T02:11:49;15.50;99.90
43987;DHT22;29650;47.378;8.300;2023-07-31T02:14:16;15.50;99.90
43987;DHT22;29650;47.378;8.300;2023-07-31T02:16:45;15.60;99.90
43987;DHT22;29650;47.378;8.300;2023-07-31T02:19:12;15.50;99.90
43987;DHT22;29650;47.378;8.300;2023-07-31T02:21:39;15.50;99.90
43987;DHT22;29650;47.378;8.300;2023-07-31T02:24:06;15.50;99.90
43987;DHT22;29650;47.378;8.300;2023-07-31T02:26:32;16.40;99.90
43987;DHT22;29650;47.378;8.300;2023-07-31T02:28:59;15.40;99.90
43987;DHT22;29650;47.378;8.300;2023-07-31T02:31:26;15.40;99.90
43987;DHT22;29650;47.378;8.300;2023-07-31T02:33:55;15.40;99.90
43987;DHT22;29650;47.378;8.300;2023-07-31T02:36:22;15.40;99.90
43987;DHT22;29650;47.378;8.300;2023-07-31T02:38:49;15.50;99.90
43987;DHT22;29650;47.378;8.300;2023-07-31T02:41:16;15.40;99.90
43987;DHT22;29650;47.378;8.300;2023-07-31T02:43:43;15.40;99.90
43987;DHT22;29650;47.378;8.300;2023-07-31T02:46:09;15.30;99.90
43987;DHT22;29650;47.378;8.300;2023-07-31T02:48:36;15.10;99.90
43987;DHT22;29650;47.378;8.300;2023-07-31T02:51:05;15.10;99.90
43987;DHT22;29650;47.378;8.300;2023-07-31T02:53:32;15.20;99.90
43987;DHT22;29650;47.378;8.300;2023-07-31T02:55:59;15.20;99.90
43987;DHT22;29650;47.378;8.300;2023-07-31T02:58:26;15.30;99.90
43987;DHT22;29650;47.378;8.300;2023-07-31T03:00:53;15.40;99.90
43987;DHT22;29650;47.378;8.300;2023-07-31T03:03:20;15.40;99.90
43987;DHT22;29650;47.378;8.300;2023-07-31T03:05:47;15.30;99.90
43987;DHT22;29650;47.378;8.300;2023-07-31T03:08:15;15.40;99.90
43987;DHT22;29650;47.378;8.300;2023-07-31T03:10:42;15.20;99.90
43987;DHT22;29650;47.378;8.300;2023-07-31T03:13:09;15.10;99.90
43987;DHT22;29650;47.378;8.300;2023-07-31T03:15:36;15.00;99.90
43987;DHT22;29650;47.378;8.300;2023-07-31T03:18:03;15.10;99.90
43987;DHT22;29650;47.378;8.300;2023-07-31T03:20:30;15.00;99.90
43987;DHT22;29650;47.378;8.300;2023-07-31T03:22:57;14.90;99.90
43987;DHT22;29650;47.378;8.300;2023-07-31T03:25:25;14.90;99.90
43987;DHT22;29650;47.378;8.300;2023-07-31T03:27:52;14.90;99.90
43987;DHT22;29650;47.378;8.300;2023-07-31T03:30:20;15.00;99.90
43987;DHT22;29650;47.378;8.300;2023-07-31T03:32:46;14.90;99.90
43987;DHT22;29650;47.378;8.300;2023-07-31T03:35:13;15.00;99.90
43987;DHT22;29650;47.378;8.300;2023-07-31T03:37:40;15.00;99.90
43987;DHT22;29650;47.378;8.300;2023-07-31T03:40:08;15.00;99.90
43987;DHT22;29650;47.378;8.300;2023-07-31T03:42:37;15.00;99.90
43987;DHT22;29650;47.378;8.300;2023-07-31T03:45:05;15.10;99.90
43987;DHT22;29650;47.378;8.300;2023-07-31T03:47:33;15.00;99.90
43987;DHT22;29650;47.378;8.300;2023-07-31T03:50:00;14.20;99.90
43987;DHT22;29650;47.378;8.300;2023-07-31T03:52:27;15.00;99.90
43987;DHT22;29650;47.378;8.300;2023-07-31T03:54:53;15.00;99.90
43987;DHT22;29650;47.378;8.300;2023-07-31T03:57:20;15.00;99.90
43987;DHT22;29650;47.378;8.300;2023-07-31T03:59:49;14.80;99.90
43987;DHT22;29650;47.378;8.300;2023-07-31T04:02:16;14.80;99.90
43987;DHT22;29650;47.378;8.300;2023-07-31T04:04:44;14.70;99.90
43987;DHT22;29650;47.378;8.300;2023-07-31T04:07:11;14.70;99.90
43987;DHT22;29650;47.378;8.300;2023-07-31T04:09:38;14.70;99.90
43987;DHT22;29650;47.378;8.300;2023-07-31T04:12:05;14.70;99.90
43987;DHT22;29650;47.378;8.300;2023-07-31T04:14:32;14.80;99.90
43987;DHT22;29650;47.378;8.300;2023-07-31T04:17:01;14.80;99.90
43987;DHT22;29650;47.378;8.300;2023-07-31T04:19:28;14.80;99.90
43987;DHT22;29650;47.378;8.300;2023-07-31T04:21:55;14.80;99.90
43987;DHT22;29650;47.378;8.300;2023-07-31T04:24:22;14.80;99.90
43987;DHT22;29650;47.378;8.300;2023-07-31T04:26:50;14.90;99.90
43987;DHT22;29650;47.378;8.300;2023-07-31T04:29:18;14.90;99.90
43987;DHT22;29650;47.378;8.300;2023-07-31T04:31:45;15.00;99.90
43987;DHT22;29650;47.378;8.300;2023-07-31T04:34:13;15.00;99.90
43987;DHT22;29650;47.378;8.300;2023-07-31T04:36:40;15.00;99.90
43987;DHT22;29650;47.378;8.300;2023-07-31T04:39:07;15.00;99.90
43987;DHT22;29650;47.378;8.300;2023-07-31T04:41:34;14.90;99.90
43987;DHT22;29650;47.378;8.300;2023-07-31T04:44:01;14.90;99.90
43987;DHT22;29650;47.378;8.300;2023-07-31T04:46:29;15.00;99.90
43987;DHT22;29650;47.378;8.300;2023-07-31T04:49:02;15.10;99.90
43987;DHT22;29650;47.378;8.300;2023-07-31T04:51:30;15.10;99.90
43987;DHT22;29650;47.378;8.300;2023-07-31T04:53:57;15.10;99.90
43987;DHT22;29650;47.378;8.300;2023-07-31T04:56:24;15.20;99.90
43987;DHT22;29650;47.378;8.300;2023-07-31T04:58:51;15.20;99.90
43987;DHT22;29650;47.378;8.300;2023-07-31T05:01:18;15.30;99.90
43987;DHT22;29650;47.378;8.300;2023-07-31T05:03:45;15.40;99.90
43987;DHT22;29650;47.378;8.300;2023-07-31T05:06:12;15.40;99.90
43987;DHT22;29650;47.378;8.300;2023-07-31T05:08:42;15.40;99.90
43987;DHT22;29650;47.378;8.300;2023-07-31T05:11:17;15.40;99.90
43987;DHT22;29650;47.378;8.300;2023-07-31T05:13:44;15.40;99.90
43987;DHT22;29650;47.378;8.300;2023-07-31T05:16:13;15.60;99.90
43987;DHT22;29650;47.378;8.300;2023-07-31T05:18:43;15.10;99.90
43987;DHT22;29650;47.378;8.300;2023-07-31T05:21:09;15.70;99.90
43987;DHT22;29650;47.378;8.300;2023-07-31T05:23:37;15.70;99.90
43987;DHT22;29650;47.378;8.300;2023-07-31T05:26:06;15.70;99.90
43987;DHT22;29650;47.378;8.300;2023-07-31T05:28:35;15.70;99.90
43987;DHT22;29650;47.378;8.300;2023-07-31T05:31:03;15.70;99.90
43987;DHT22;29650;47.378;8.300;2023-07-31T05:33:31;15.70;99.90
43987;DHT22;29650;47.378;8.300;2023-07-31T05:35:59;15.70;99.90
43987;DHT22;29650;47.378;8.300;2023-07-31T05:38:26;15.80;99.90
43987;DHT22;29650;47.378;8.300;2023-07-31T05:40:53;15.70;99.90
43987;DHT22;29650;47.378;8.300;2023-07-31T05:43:21;15.70;99.90
43987;DHT22;29650;47.378;8.300;2023-07-31T05:45:50;15.10;99.90
43987;DHT22;29650;47.378;8.300;2023-07-31T05:48:18;15.90;99.90
43987;DHT22;29650;47.378;8.300;2023-07-31T05:50:46;16.00;99.90
43987;DHT22;29650;47.378;8.300;2023-07-31T05:53:14;16.20;99.90
43987;DHT22;29650;47.378;8.300;2023-07-31T05:55:41;16.20;99.90
43987;DHT22;29650;47.378;8.300;2023-07-31T05:58:08;16.20;99.90
43987;DHT22;29650;47.378;8.300;2023-07-31T06:00:38;16.20;99.90
43987;DHT22;29650;47.378;8.300;2023-07-31T06:03:05;16.20;99.90
43987;DHT22;29650;47.378;8.300;2023-07-31T06:05:32;16.30;99.90
43987;DHT22;29650;47.378;8.300;2023-07-31T06:08:02;16.20;99.90
43987;DHT22;29650;47.378;8.300;2023-07-31T06:10:29;16.20;99.90
43987;DHT22;29650;47.378;8.300;2023-07-31T06:12:56;16.10;99.90
43987;DHT22;29650;47.378;8.300;2023-07-31T06:15:23;16.20;99.90
43987;DHT22;29650;47.378;8.300;2023-07-31T06:17:51;16.20;99.90
43987;DHT22;29650;47.378;8.300;2023-07-31T06:20:18;16.30;99.90
43987;DHT22;29650;47.378;8.300;2023-07-31T06:22:55;15.00;99.90
43987;DHT22;29650;47.378;8.300;2023-07-31T06:25:22;16.90;99.90
43987;DHT22;29650;47.378;8.300;2023-07-31T06:27:49;16.10;99.90
43987;DHT22;29650;47.378;8.300;2023-07-31T06:30:18;16.30;99.90
43987;DHT22;29650;47.378;8.300;2023-07-31T06:32:45;16.30;99.90
43987;DHT22;29650;47.378;8.300;2023-07-31T06:35:15;16.40;99.90
43987;DHT22;29650;47.378;8.300;2023-07-31T06:37:42;15.70;99.90
43987;DHT22;29650;47.378;8.300;2023-07-31T06:40:10;16.70;99.90
43987;DHT22;29650;47.378;8.300;2023-07-31T06:42:37;18.50;99.90
43987;DHT22;29650;47.378;8.300;2023-07-31T06:45:08;17.00;99.90
43987;DHT22;29650;47.378;8.300;2023-07-31T06:47:36;17.20;99.90
43987;DHT22;29650;47.378;8.300;2023-07-31T06:50:03;17.10;99.90
43987;DHT22;29650;47.378;8.300;2023-07-31T06:52:32;17.40;99.90
43987;DHT22;29650;47.378;8.300;2023-07-31T06:55:16;17.30;99.90
43987;DHT22;29650;47.378;8.300;2023-07-31T06:57:43;17.40;99.90
43987;DHT22;29650;47.378;8.300;2023-07-31T07:00:11;17.60;99.90
43987;DHT22;29650;47.378;8.300;2023-07-31T07:02:38;17.70;99.90
43987;DHT22;29650;47.378;8.300;2023-07-31T07:05:06;16.60;99.90
43987;DHT22;29650;47.378;8.300;2023-07-31T07:07:35;17.90;99.90
43987;DHT22;29650;47.378;8.300;2023-07-31T07:10:03;18.00;99.90
43987;DHT22;29650;47.378;8.300;2023-07-31T07:12:31;18.20;99.90
43987;DHT22;29650;47.378;8.300;2023-07-31T07:14:58;18.30;99.90
43987;DHT22;29650;47.378;8.300;2023-07-31T07:17:27;18.30;99.90
43987;DHT22;29650;47.378;8.300;2023-07-31T07:19:54;18.30;99.90
43987;DHT22;29650;47.378;8.300;2023-07-31T07:22:21;18.20;99.90
43987;DHT22;29650;47.378;8.300;2023-07-31T07:24:50;18.20;99.90
43987;DHT22;29650;47.378;8.300;2023-07-31T07:27:17;18.30;99.90
43987;DHT22;29650;47.378;8.300;2023-07-31T07:29:46;18.20;99.90
43987;DHT22;29650;47.378;8.300;2023-07-31T07:32:13;18.30;99.90
43987;DHT22;29650;47.378;8.300;2023-07-31T07:34:41;18.40;99.90
43987;DHT22;29650;47.378;8.300;2023-07-31T07:37:08;18.30;99.90
43987;DHT22;29650;47.378;8.300;2023-07-31T07:39:35;18.40;99.90
43987;DHT22;29650;47.378;8.300;2023-07-31T07:42:03;18.70;99.90
43987;DHT22;29650;47.378;8.300;2023-07-31T07:44:30;18.70;98.10
43987;DHT22;29650;47.378;8.300;2023-07-31T07:46:57;18.70;97.60
43987;DHT22;29650;47.378;8.300;2023-07-31T07:49:24;18.80;98.40
43987;DHT22;29650;47.378;8.300;2023-07-31T07:51:55;19.10;94.20
43987;DHT22;29650;47.378;8.300;2023-07-31T07:54:22;19.30;92.20
43987;DHT22;29650;47.378;8.300;2023-07-31T07:56:56;19.50;90.50
43987;DHT22;29650;47.378;8.300;2023-07-31T07:59:25;19.50;90.20
43987;DHT22;29650;47.378;8.300;2023-07-31T08:01:52;19.80;90.70
43987;DHT22;29650;47.378;8.300;2023-07-31T08:04:19;19.90;87.60
43987;DHT22;29650;47.378;8.300;2023-07-31T08:06:48;18.70;83.70
43987;DHT22;29650;47.378;8.300;2023-07-31T08:09:15;19.60;85.50
43987;DHT22;29650;47.378;8.300;2023-07-31T08:11:42;19.70;87.80
43987;DHT22;29650;47.378;8.300;2023-07-31T08:14:09;19.60;81.50
43987;DHT22;29650;47.378;8.300;2023-07-31T08:16:50;19.70;84.30
43987;DHT22;29650;47.378;8.300;2023-07-31T08:19:17;19.60;86.90
43987;DHT22;29650;47.378;8.300;2023-07-31T08:21:44;19.80;86.30
43987;DHT22;29650;47.378;8.300;2023-07-31T08:24:11;20.40;77.30
43987;DHT22;29650;47.378;8.300;2023-07-31T08:26:38;20.20;67.50
43987;DHT22;29650;47.378;8.300;2023-07-31T08:29:05;19.40;69.30
43987;DHT22;29650;47.378;8.300;2023-07-31T08:31:32;20.10;67.00
43987;DHT22;29650;47.378;8.300;2023-07-31T08:34:01;20.10;66.60
43987;DHT22;29650;47.378;8.300;2023-07-31T08:36:34;19.20;66.30
43987;DHT22;29650;47.378;8.300;2023-07-31T08:39:04;20.00;64.90
43987;DHT22;29650;47.378;8.300;2023-07-31T08:41:31;19.90;62.90
43987;DHT22;29650;47.378;8.300;2023-07-31T08:44:02;20.20;65.60
43987;DHT22;29650;47.378;8.300;2023-07-31T08:46:30;20.50;65.60
43987;DHT22;29650;47.378;8.300;2023-07-31T08:48:58;19.40;66.80
43987;DHT22;29650;47.378;8.300;2023-07-31T08:51:32;20.60;65.10
43987;DHT22;29650;47.378;8.300;2023-07-31T08:53:59;20.40;59.20
43987;DHT22;29650;47.378;8.300;2023-07-31T08:56:26;20.00;58.60
43987;DHT22;29650;47.378;8.300;2023-07-31T08:58:54;20.40;58.70
43987;DHT22;29650;47.378;8.300;2023-07-31T09:01:22;18.90;56.20
43987;DHT22;29650;47.378;8.300;2023-07-31T09:03:51;20.30;55.70
43987;DHT22;29650;47.378;8.300;2023-07-31T09:06:19;19.90;54.80
43987;DHT22;29650;47.378;8.300;2023-07-31T09:08:49;20.20;57.50
43987;DHT22;29650;47.378;8.300;2023-07-31T09:11:17;20.50;56.50
43987;DHT22;29650;47.378;8.300;2023-07-31T09:13:46;20.90;55.80
43987;DHT22;29650;47.378;8.300;2023-07-31T09:16:13;20.60;51.90
43987;DHT22;29650;47.378;8.300;2023-07-31T09:18:53;20.50;51.60
43987;DHT22;29650;47.378;8.300;2023-07-31T09:21:22;20.90;52.70
43987;DHT22;29650;47.378;8.300;2023-07-31T09:23:51;21.00;48.90
43987;DHT22;29650;47.378;8.300;2023-07-31T09:26:30;21.20;49.60
43987;DHT22;29650;47.378;8.300;2023-07-31T09:28:57;20.90;47.50
43987;DHT22;29650;47.378;8.300;2023-07-31T09:31:42;20.50;47.00
43987;DHT22;29650;47.378;8.300;2023-07-31T09:34:09;21.00;51.50
43987;DHT22;29650;47.378;8.300;2023-07-31T09:36:50;21.30;48.50
43987;DHT22;29650;47.378;8.300;2023-07-31T09:39:20;21.00;48.40
43987;DHT22;29650;47.378;8.300;2023-07-31T09:41:55;21.30;49.00
43987;DHT22;29650;47.378;8.300;2023-07-31T09:44:37;21.30;49.20
43987;DHT22;29650;47.378;8.300;2023-07-31T09:47:05;21.30;48.70
43987;DHT22;29650;47.378;8.300;2023-07-31T09:49:32;21.20;48.70
43987;DHT22;29650;47.378;8.300;2023-07-31T09:52:00;20.60;47.90
43987;DHT22;29650;47.378;8.300;2023-07-31T09:54:37;20.80;48.20
43987;DHT22;29650;47.378;8.300;2023-07-31T09:57:05;21.30;47.40
43987;DHT22;29650;47.378;8.300;2023-07-31T09:59:37;21.30;46.50
43987;DHT22;29650;47.378;8.300;2023-07-31T10:02:05;21.20;46.60
43987;DHT22;29650;47.378;8.300;2023-07-31T10:04:44;21.30;46.40
43987;DHT22;29650;47.378;8.300;2023-07-31T10:07:13;21.70;44.20
43987;DHT22;29650;47.378;8.300;2023-07-31T10:09:42;21.90;44.50
43987;DHT22;29650;47.378;8.300;2023-07-31T10:12:12;22.40;45.40
43987;DHT22;29650;47.378;8.300;2023-07-31T10:14:47;22.20;44.40
43987;DHT22;29650;47.378;8.300;2023-07-31T10:17:15;22.00;43.00
43987;DHT22;29650;47.378;8.300;2023-07-31T10:19:45;21.50;42.60
43987;DHT22;29650;47.378;8.300;2023-07-31T10:22:13;21.90;42.30
43987;DHT22;29650;47.378;8.300;2023-07-31T10:24:43;22.30;43.50
43987;DHT22;29650;47.378;8.300;2023-07-31T10:27:10;22.20;44.00
43987;DHT22;29650;47.378;8.300;2023-07-31T10:29:39;22.00;42.30
43987;DHT22;29650;47.378;8.300;2023-07-31T10:32:07;21.70;41.90
43987;DHT22;29650;47.378;8.300;2023-07-31T10:34:40;22.00;43.50
43987;DHT22;29650;47.378;8.300;2023-07-31T10:37:28;21.80;41.40
43987;DHT22;29650;47.378;8.300;2023-07-31T10:40:01;22.30;42.80
43987;DHT22;29650;47.378;8.300;2023-07-31T10:42:32;22.00;41.10
43987;DHT22;29650;47.378;8.300;2023-07-31T10:45:02;22.50;44.30
43987;DHT22;29650;47.378;8.300;2023-07-31T10:47:29;22.10;40.50
43987;DHT22;29650;47.378;8.300;2023-07-31T10:50:21;22.40;39.00
43987;DHT22;29650;47.378;8.300;2023-07-31T10:52:52;22.30;39.70
43987;DHT22;29650;47.378;8.300;2023-07-31T10:55:30;22.30;37.40
43987;DHT22;29650;47.378;8.300;2023-07-31T10:57:58;22.20;40.60
43987;DHT22;29650;47.378;8.300;2023-07-31T11:00:31;22.80;39.30
43987;DHT22;29650;47.378;8.300;2023-07-31T11:03:04;23.00;38.90
43987;DHT22;29650;47.378;8.300;2023-07-31T11:05:46;22.80;38.20
43987;DHT22;29650;47.378;8.300;2023-07-31T11:08:15;22.10;38.30
43987;DHT22;29650;47.378;8.300;2023-07-31T11:10:45;22.10;38.90
43987;DHT22;29650;47.378;8.300;2023-07-31T11:13:13;22.20;39.30
43987;DHT22;29650;47.378;8.300;2023-07-31T11:15:40;22.20;40.40
43987;DHT22;29650;47.378;8.300;2023-07-31T11:18:08;22.60;38.40
43987;DHT22;29650;47.378;8.300;2023-07-31T11:20:37;23.00;39.70
43987;DHT22;29650;47.378;8.300;2023-07-31T11:23:06;23.20;38.10
43987;DHT22;29650;47.378;8.300;2023-07-31T11:25:33;23.60;39.40
43987;DHT22;29650;47.378;8.300;2023-07-31T11:28:04;23.70;36.40
43987;DHT22;29650;47.378;8.300;2023-07-31T11:30:32;23.50;35.30
43987;DHT22;29650;47.378;8.300;2023-07-31T11:33:00;23.70;32.60
43987;DHT22;29650;47.378;8.300;2023-07-31T11:35:29;23.40;33.10
43987;DHT22;29650;47.378;8.300;2023-07-31T11:37:56;23.80;33.70
43987;DHT22;29650;47.378;8.300;2023-07-31T11:40:23;23.30;34.30
43987;DHT22;29650;47.378;8.300;2023-07-31T11:42:55;23.40;34.40
43987;DHT22;29650;47.378;8.300;2023-07-31T11:45:25;23.80;34.00
43987;DHT22;29650;47.378;8.300;2023-07-31T11:47:54;23.60;33.30
43987;DHT22;29650;47.378;8.300;2023-07-31T11:50:22;23.70;33.80
43987;DHT22;29650;47.378;8.300;2023-07-31T11:52:53;23.90;32.90
43987;DHT22;29650;47.378;8.300;2023-07-31T11:55:22;24.00;31.50
43987;DHT22;29650;47.378;8.300;2023-07-31T11:57:49;24.10;32.40
43987;DHT22;29650;47.378;8.300;2023-07-31T12:00:17;23.60;30.40
43987;DHT22;29650;47.378;8.300;2023-07-31T12:02:46;23.30;28.80
43987;DHT22;29650;47.378;8.300;2023-07-31T12:05:13;23.60;29.70
43987;DHT22;29650;47.378;8.300;2023-07-31T12:07:45;23.90;30.30
43987;DHT22;29650;47.378;8.300;2023-07-31T12:10:26;24.10;28.40
43987;DHT22;29650;47.378;8.300;2023-07-31T12:13:01;24.10;27.10
43987;DHT22;29650;47.378;8.300;2023-07-31T12:15:36;24.00;27.40
43987;DHT22;29650;47.378;8.300;2023-07-31T12:18:09;23.80;26.50
43987;DHT22;29650;47.378;8.300;2023-07-31T12:20:41;23.80;26.60
43987;DHT22;29650;47.378;8.300;2023-07-31T12:23:17;24.10;27.20
43987;DHT22;29650;47.378;8.300;2023-07-31T12:25:44;24.70;27.20
43987;DHT22;29650;47.378;8.300;2023-07-31T12:28:11;25.00;27.10
43987;DHT22;29650;47.378;8.300;2023-07-31T12:30:40;24.90;26.20
43987;DHT22;29650;47.378;8.300;2023-07-31T12:33:13;24.70;26.50
43987;DHT22;29650;47.378;8.300;2023-07-31T12:35:43;24.40;28.70
43987;DHT22;29650;47.378;8.300;2023-07-31T12:38:11;24.70;26.80
43987;DHT22;29650;47.378;8.300;2023-07-31T12:40:39;25.00;27.20
43987;DHT22;29650;47.378;8.300;2023-07-31T12:43:06;25.10;27.50
43987;DHT22;29650;47.378;8.300;2023-07-31T12:45:34;25.20;27.90
43987;DHT22;29650;47.378;8.300;2023-07-31T12:48:01;25.00;26.10
43987;DHT22;29650;47.378;8.300;2023-07-31T12:50:29;24.90;24.90
43987;DHT22;29650;47.378;8.300;2023-07-31T12:52:57;24.90;24.30
43987;DHT22;29650;47.378;8.300;2023-07-31T12:55:24;25.00;25.70
43987;DHT22;29650;47.378;8.300;2023-07-31T12:57:51;24.40;26.60
43987;DHT22;29650;47.378;8.300;2023-07-31T13:00:18;24.20;27.60
43987;DHT22;29650;47.378;8.300;2023-07-31T13:02:45;24.00;28.10
43987;DHT22;29650;47.378;8.300;2023-07-31T13:05:12;24.60;28.50
43987;DHT22;29650;47.378;8.300;2023-07-31T13:07:41;24.60;27.00
43987;DHT22;29650;47.378;8.300;2023-07-31T13:10:08;24.50;26.70
43987;DHT22;29650;47.378;8.300;2023-07-31T13:12:35;24.60;27.50
43987;DHT22;29650;47.378;8.300;2023-07-31T13:15:03;24.50;28.10
43987;DHT22;29650;47.378;8.300;2023-07-31T13:17:30;24.50;28.10
43987;DHT22;29650;47.378;8.300;2023-07-31T13:19:57;24.50;28.50
43987;DHT22;29650;47.378;8.300;2023-07-31T13:22:25;24.10;27.70
43987;DHT22;29650;47.378;8.300;2023-07-31T13:24:53;24.50;27.80
43987;DHT22;29650;47.378;8.300;2023-07-31T13:27:20;24.50;28.30
43987;DHT22;29650;47.378;8.300;2023-07-31T13:29:47;24.20;27.90
43987;DHT22;29650;47.378;8.300;2023-07-31T13:32:15;24.80;29.00
43987;DHT22;29650;47.378;8.300;2023-07-31T13:34:42;24.80;29.10
43987;DHT22;29650;47.378;8.300;2023-07-31T13:37:09;24.70;29.70
43987;DHT22;29650;47.378;8.300;2023-07-31T13:39:36;24.60;29.50
43987;DHT22;29650;47.378;8.300;2023-07-31T13:42:05;25.00;29.40
43987;DHT22;29650;47.378;8.300;2023-07-31T13:44:33;24.80;29.80
43987;DHT22;29650;47.378;8.300;2023-07-31T13:47:00;24.80;29.10
43987;DHT22;29650;47.378;8.300;2023-07-31T13:49:28;24.70;29.20
43987;DHT22;29650;47.378;8.300;2023-07-31T13:51:55;24.60;29.40
43987;DHT22;29650;47.378;8.300;2023-07-31T13:54:22;24.70;29.00
43987;DHT22;29650;47.378;8.300;2023-07-31T13:56:49;24.90;28.30
43987;DHT22;29650;47.378;8.300;2023-07-31T13:59:18;25.30;28.10
43987;DHT22;29650;47.378;8.300;2023-07-31T14:01:45;25.40;27.80
43987;DHT22;29650;47.378;8.300;2023-07-31T14:04:12;25.40;28.30
43987;DHT22;29650;47.378;8.300;2023-07-31T14:06:39;25.30;29.10
43987;DHT22;29650;47.378;8.300;2023-07-31T14:09:06;25.20;31.20
43987;DHT22;29650;47.378;8.300;2023-07-31T14:11:34;25.10;30.00
43987;DHT22;29650;47.378;8.300;2023-07-31T14:14:01;25.30;30.50
43987;DHT22;29650;47.378;8.300;2023-07-31T14:16:29;25.40;30.30
43987;DHT22;29650;47.378;8.300;2023-07-31T14:18:56;25.60;32.10
43987;DHT22;29650;47.378;8.300;2023-07-31T14:21:24;25.20;28.70
43987;DHT22;29650;47.378;8.300;2023-07-31T14:23:52;25.60;27.80
43987;DHT22;29650;47.378;8.300;2023-07-31T14:26:19;25.70;26.50
43987;DHT22;29650;47.378;8.300;2023-07-31T14:28:45;25.60;27.30
43987;DHT22;29650;47.378;8.300;2023-07-31T14:31:12;25.50;28.10
43987;DHT22;29650;47.378;8.300;2023-07-31T14:33:41;25.40;29.00
43987;DHT22;29650;47.378;8.300;2023-07-31T14:36:08;25.20;27.80
43987;DHT22;29650;47.378;8.300;2023-07-31T14:38:35;25.50;29.30
43987;DHT22;29650;47.378;8.300;2023-07-31T14:41:02;25.20;28.20
43987;DHT22;29650;47.378;8.300;2023-07-31T14:43:29;25.10;28.30
43987;DHT22;29650;47.378;8.300;2023-07-31T14:45:56;25.40;28.70
43987;DHT22;29650;47.378;8.300;2023-07-31T14:48:25;25.80;29.50
43987;DHT22;29650;47.378;8.300;2023-07-31T14:50:53;25.70;27.80
43987;DHT22;29650;47.378;8.300;2023-07-31T14:53:21;25.40;28.50
43987;DHT22;29650;47.378;8.300;2023-07-31T14:55:48;25.70;28.80
43987;DHT22;29650;47.378;8.300;2023-07-31T14:58:15;26.00;31.80
43987;DHT22;29650;47.378;8.300;2023-07-31T15:00:43;25.40;31.60
43987;DHT22;29650;47.378;8.300;2023-07-31T15:03:10;25.60;33.70
43987;DHT22;29650;47.378;8.300;2023-07-31T15:05:37;25.80;33.80
43987;DHT22;29650;47.378;8.300;2023-07-31T15:08:05;26.00;32.60
43987;DHT22;29650;47.378;8.300;2023-07-31T15:10:32;26.00;31.70
43987;DHT22;29650;47.378;8.300;2023-07-31T15:12:59;26.20;31.90
43987;DHT22;29650;47.378;8.300;2023-07-31T15:15:27;25.90;32.90
43987;DHT22;29650;47.378;8.300;2023-07-31T15:17:54;25.70;32.60
43987;DHT22;29650;47.378;8.300;2023-07-31T15:20:22;26.30;32.70
43987;DHT22;29650;47.378;8.300;2023-07-31T15:22:49;25.40;31.60
43987;DHT22;29650;47.378;8.300;2023-07-31T15:25:18;25.90;31.60
43987;DHT22;29650;47.378;8.300;2023-07-31T15:27:45;25.80;31.80
43987;DHT22;29650;47.378;8.300;2023-07-31T15:30:12;26.00;31.10
43987;DHT22;29650;47.378;8.300;2023-07-31T15:32:39;26.30;32.00
43987;DHT22;29650;47.378;8.300;2023-07-31T15:35:06;26.10;30.80
43987;DHT22;29650;47.378;8.300;2023-07-31T15:37:34;25.90;33.20